sensor_id;sensor_type;location;lat;lon;timestamp;P1;durP1;ratioP1;P2;durP2;ratioP2
69890;SDS011;57170;43.964;21.262;2024-02-26T00:00:26;14.57;;;10.35;;
69890;SDS011;57170;43.964;21.262;2024-02-26T00:02:53;16.30;;;11.73;;
69890;SDS011;57170;43.964;21.262;2024-02-26T00:05:19;14.15;;;10.63;;
69890;SDS011;57170;43.964;21.262;2024-02-26T00:07:45;15.70;;;10.35;;
69890;SDS011;57170;43.964;21.262;2024-02-26T00:10:12;12.88;;;10.07;;
69890;SDS011;57170;43.964;21.262;2024-02-26T00:12:39;13.88;;;11.10;;
69890;SDS011;57170;43.964;21.262;2024-02-26T00:15:09;13.23;;;9.80;;
69890;SDS011;57170;43.964;21.262;2024-02-26T00:17:35;11.60;;;8.77;;
69890;SDS011;57170;43.964;21.262;2024-02-26T00:20:04;14.15;;;8.93;;
69890;SDS011;57170;43.964;21.262;2024-02-26T00:22:33;12.20;;;8.40;;
69890;SDS011;57170;43.964;21.262;2024-02-26T00:24:59;10.35;;;7.47;;
69890;SDS011;57170;43.964;21.262;2024-02-26T00:27:25;10.02;;;7.97;;
69890;SDS011;57170;43.964;21.262;2024-02-26T00:29:52;13.57;;;8.38;;
69890;SDS011;57170;43.964;21.262;2024-02-26T00:32:18;12.32;;;8.93;;
69890;SDS011;57170;43.964;21.262;2024-02-26T00:34:44;12.52;;;8.65;;
69890;SDS011;57170;43.964;21.262;2024-02-26T00:37:10;11.57;;;8.40;;
69890;SDS011;57170;43.964;21.262;2024-02-26T00:39:36;12.40;;;8.77;;
69890;SDS011;57170;43.964;21.262;2024-02-26T00:42:03;14.38;;;9.75;;
69890;SDS011;57170;43.964;21.262;2024-02-26T00:44:30;16.83;;;10.88;;
69890;SDS011;57170;43.964;21.262;2024-02-26T00:46:57;13.85;;;8.13;;
69890;SDS011;57170;43.964;21.262;2024-02-26T00:49:23;19.33;;;11.60;;
69890;SDS011;57170;43.964;21.262;2024-02-26T00:51:49;12.88;;;9.40;;
69890;SDS011;57170;43.964;21.262;2024-02-26T00:54:15;19.95;;;10.07;;
69890;SDS011;57170;43.964;21.262;2024-02-26T00:56:41;13.70;;;10.43;;
69890;SDS011;57170;43.964;21.262;2024-02-26T00:59:07;13.82;;;10.68;;
69890;SDS011;57170;43.964;21.262;2024-02-26T01:01:33;14.98;;;9.77;;
69890;SDS011;57170;43.964;21.262;2024-02-26T01:04:00;13.05;;;9.55;;
69890;SDS011;57170;43.964;21.262;2024-02-26T01:06:26;13.57;;;9.95;;
69890;SDS011;57170;43.964;21.262;2024-02-26T01:08:52;12.57;;;9.68;;
69890;SDS011;57170;43.964;21.262;2024-02-26T01:11:18;15.13;;;11.05;;
69890;SDS011;57170;43.964;21.262;2024-02-26T01:13:44;17.50;;;10.82;;
69890;SDS011;57170;43.964;21.262;2024-02-26T01:16:10;14.32;;;10.73;;
69890;SDS011;57170;43.964;21.262;2024-02-26T01:18:36;12.68;;;9.60;;
69890;SDS011;57170;43.964;21.262;2024-02-26T01:21:03;27.83;;;17.10;;
69890;SDS011;57170;43.964;21.262;2024-02-26T01:23:32;18.02;;;12.57;;
69890;SDS011;57170;43.964;21.262;2024-02-26T01:25:58;16.23;;;11.23;;
69890;SDS011;57170;43.964;21.262;2024-02-26T01:28:24;15.85;;;10.25;;
69890;SDS011;57170;43.964;21.262;2024-02-26T01:30:50;14.75;;;9.60;;
69890;SDS011;57170;43.964;21.262;2024-02-26T01:33:16;11.15;;;8.30;;
69890;SDS011;57170;43.964;21.262;2024-02-26T01:35:42;13.45;;;8.38;;
69890;SDS011;57170;43.964;21.262;2024-02-26T01:38:08;12.95;;;8.50;;
69890;SDS011;57170;43.964;21.262;2024-02-26T01:40:34;12.32;;;9.15;;
69890;SDS011;57170;43.964;21.262;2024-02-26T01:43:01;12.57;;;9.00;;
69890;SDS011;57170;43.964;21.262;2024-02-26T01:45:27;10.85;;;7.72;;
69890;SDS011;57170;43.964;21.262;2024-02-26T01:47:53;12.20;;;9.40;;
69890;SDS011;57170;43.964;21.262;2024-02-26T01:50:20;15.52;;;8.75;;
69890;SDS011;57170;43.964;21.262;2024-02-26T01:52:50;9.70;;;8.32;;
69890;SDS011;57170;43.964;21.262;2024-02-26T01:55:17;10.38;;;8.02;;
69890;SDS011;57170;43.964;21.262;2024-02-26T01:57:44;10.65;;;8.85;;
69890;SDS011;57170;43.964;21.262;2024-02-26T02:00:11;14.52;;;9.18;;
69890;SDS011;57170;43.964;21.262;2024-02-26T02:02:37;11.80;;;9.50;;
69890;SDS011;57170;43.964;21.262;2024-02-26T02:05:05;12.77;;;8.43;;
69890;SDS011;57170;43.964;21.262;2024-02-26T02:07:32;13.93;;;9.57;;
69890;SDS011;57170;43.964;21.262;2024-02-26T02:09:58;11.90;;;9.25;;
69890;SDS011;57170;43.964;21.262;2024-02-26T02:12:24;10.50;;;8.27;;
69890;SDS011;57170;43.964;21.262;2024-02-26T02:14:50;14.18;;;9.63;;
69890;SDS011;57170;43.964;21.262;2024-02-26T02:17:17;13.35;;;9.23;;
69890;SDS011;57170;43.964;21.262;2024-02-26T02:19:43;11.57;;;9.35;;
69890;SDS011;57170;43.964;21.262;2024-02-26T02:22:09;13.88;;;9.32;;
69890;SDS011;57170;43.964;21.262;2024-02-26T02:24:35;17.02;;;9.63;;
69890;SDS011;57170;43.964;21.262;2024-02-26T02:27:01;13.77;;;9.98;;
69890;SDS011;57170;43.964;21.262;2024-02-26T02:29:28;12.15;;;9.48;;
69890;SDS011;57170;43.964;21.262;2024-02-26T02:31:54;15.00;;;10.65;;
69890;SDS011;57170;43.964;21.262;2024-02-26T02:34:21;11.45;;;9.85;;
69890;SDS011;57170;43.964;21.262;2024-02-26T02:36:53;11.75;;;9.23;;
69890;SDS011;57170;43.964;21.262;2024-02-26T02:39:20;15.18;;;10.43;;
69890;SDS011;57170;43.964;21.262;2024-02-26T02:41:46;13.60;;;9.70;;
69890;SDS011;57170;43.964;21.262;2024-02-26T02:44:12;13.80;;;9.13;;
69890;SDS011;57170;43.964;21.262;2024-02-26T02:46:38;11.30;;;9.35;;
69890;SDS011;57170;43.964;21.262;2024-02-26T02:49:08;19.42;;;10.18;;
69890;SDS011;57170;43.964;21.262;2024-02-26T02:51:35;15.98;;;11.88;;
69890;SDS011;57170;43.964;21.262;2024-02-26T02:54:01;18.60;;;12.85;;
69890;SDS011;57170;43.964;21.262;2024-02-26T02:56:27;16.45;;;11.90;;
69890;SDS011;57170;43.964;21.262;2024-02-26T02:58:53;14.02;;;12.50;;
69890;SDS011;57170;43.964;21.262;2024-02-26T03:01:19;16.15;;;12.55;;
69890;SDS011;57170;43.964;21.262;2024-02-26T03:03:46;18.92;;;14.10;;
69890;SDS011;57170;43.964;21.262;2024-02-26T03:06:12;16.20;;;13.98;;
69890;SDS011;57170;43.964;21.262;2024-02-26T03:08:38;21.95;;;15.48;;
69890;SDS011;57170;43.964;21.262;2024-02-26T03:11:06;19.70;;;16.98;;
69890;SDS011;57170;43.964;21.262;2024-02-26T03:13:32;21.85;;;17.50;;
69890;SDS011;57170;43.964;21.262;2024-02-26T03:16:03;22.17;;;19.48;;
69890;SDS011;57170;43.964;21.262;2024-02-26T03:18:30;25.13;;;19.48;;
69890;SDS011;57170;43.964;21.262;2024-02-26T03:20:56;26.40;;;20.38;;
69890;SDS011;57170;43.964;21.262;2024-02-26T03:23:22;25.73;;;21.67;;
69890;SDS011;57170;43.964;21.262;2024-02-26T03:25:48;25.25;;;20.27;;
69890;SDS011;57170;43.964;21.262;2024-02-26T03:28:14;28.80;;;21.75;;
69890;SDS011;57170;43.964;21.262;2024-02-26T03:30:40;25.30;;;21.38;;
69890;SDS011;57170;43.964;21.262;2024-02-26T03:33:06;26.73;;;22.30;;
69890;SDS011;57170;43.964;21.262;2024-02-26T03:35:32;26.98;;;21.48;;
69890;SDS011;57170;43.964;21.262;2024-02-26T03:37:59;29.05;;;22.80;;
69890;SDS011;57170;43.964;21.262;2024-02-26T03:40:25;26.33;;;21.35;;
69890;SDS011;57170;43.964;21.262;2024-02-26T03:42:51;25.58;;;21.45;;
69890;SDS011;57170;43.964;21.262;2024-02-26T03:45:19;33.78;;;23.95;;
69890;SDS011;57170;43.964;21.262;2024-02-26T03:47:45;29.67;;;23.67;;
69890;SDS011;57170;43.964;21.262;2024-02-26T03:50:11;29.38;;;22.38;;
69890;SDS011;57170;43.964;21.262;2024-02-26T03:52:37;29.63;;;22.70;;
69890;SDS011;57170;43.964;21.262;2024-02-26T03:55:03;32.03;;;24.08;;
69890;SDS011;57170;43.964;21.262;2024-02-26T03:57:29;31.35;;;22.75;;
69890;SDS011;57170;43.964;21.262;2024-02-26T03:59:56;27.75;;;21.13;;
69890;SDS011;57170;43.964;21.262;2024-02-26T04:02:22;21.88;;;17.60;;
69890;SDS011;57170;43.964;21.262;2024-02-26T04:04:48;24.00;;;17.63;;
69890;SDS011;57170;43.964;21.262;2024-02-26T04:07:14;19.42;;;16.55;;
69890;SDS011;57170;43.964;21.262;2024-02-26T04:09:41;19.55;;;17.13;;
69890;SDS011;57170;43.964;21.262;2024-02-26T04:12:08;22.48;;;17.65;;
69890;SDS011;57170;43.964;21.262;2024-02-26T04:14:35;26.38;;;18.00;;
69890;SDS011;57170;43.964;21.262;2024-02-26T04:17:02;25.20;;;18.35;;
69890;SDS011;57170;43.964;21.262;2024-02-26T04:19:28;22.77;;;17.95;;
69890;SDS011;57170;43.964;21.262;2024-02-26T04:21:54;26.75;;;17.83;;
69890;SDS011;57170;43.964;21.262;2024-02-26T04:24:20;23.50;;;18.17;;
69890;SDS011;57170;43.964;21.262;2024-02-26T04:26:46;34.58;;;25.38;;
69890;SDS011;57170;43.964;21.262;2024-02-26T04:29:14;27.88;;;22.65;;
69890;SDS011;57170;43.964;21.262;2024-02-26T04:31:41;26.63;;;21.38;;
69890;SDS011;57170;43.964;21.262;2024-02-26T04:34:08;25.48;;;18.50;;
69890;SDS011;57170;43.964;21.262;2024-02-26T04:36:34;25.30;;;17.65;;
69890;SDS011;57170;43.964;21.262;2024-02-26T04:39:00;21.83;;;14.57;;
69890;SDS011;57170;43.964;21.262;2024-02-26T04:41:26;19.90;;;15.20;;
69890;SDS011;57170;43.964;21.262;2024-02-26T04:43:52;22.30;;;16.60;;
69890;SDS011;57170;43.964;21.262;2024-02-26T04:46:18;18.17;;;14.10;;
69890;SDS011;57170;43.964;21.262;2024-02-26T04:48:46;18.02;;;14.13;;
69890;SDS011;57170;43.964;21.262;2024-02-26T04:51:13;21.63;;;14.38;;
69890;SDS011;57170;43.964;21.262;2024-02-26T04:53:39;20.55;;;14.43;;
69890;SDS011;57170;43.964;21.262;2024-02-26T04:56:05;20.98;;;15.05;;
69890;SDS011;57170;43.964;21.262;2024-02-26T04:58:31;23.02;;;15.20;;
69890;SDS011;57170;43.964;21.262;2024-02-26T05:00:57;19.90;;;14.52;;
69890;SDS011;57170;43.964;21.262;2024-02-26T05:03:23;23.08;;;17.30;;
69890;SDS011;57170;43.964;21.262;2024-02-26T05:05:50;23.27;;;17.35;;
69890;SDS011;57170;43.964;21.262;2024-02-26T05:08:16;25.15;;;17.63;;
69890;SDS011;57170;43.964;21.262;2024-02-26T05:10:42;23.80;;;16.50;;
69890;SDS011;57170;43.964;21.262;2024-02-26T05:13:08;27.52;;;18.70;;
69890;SDS011;57170;43.964;21.262;2024-02-26T05:15:35;28.02;;;20.23;;
69890;SDS011;57170;43.964;21.262;2024-02-26T05:18:01;29.52;;;20.63;;
69890;SDS011;57170;43.964;21.262;2024-02-26T05:20:27;28.77;;;19.60;;
69890;SDS011;57170;43.964;21.262;2024-02-26T05:22:54;27.65;;;19.48;;
69890;SDS011;57170;43.964;21.262;2024-02-26T05:25:20;24.15;;;18.80;;
69890;SDS011;57170;43.964;21.262;2024-02-26T05:27:46;23.02;;;16.67;;
69890;SDS011;57170;43.964;21.262;2024-02-26T05:30:12;25.00;;;17.90;;
69890;SDS011;57170;43.964;21.262;2024-02-26T05:32:38;30.85;;;17.40;;
69890;SDS011;57170;43.964;21.262;2024-02-26T05:35:04;25.63;;;16.95;;
69890;SDS011;57170;43.964;21.262;2024-02-26T05:37:31;23.98;;;17.27;;
69890;SDS011;57170;43.964;21.262;2024-02-26T05:39:57;28.02;;;19.70;;
69890;SDS011;57170;43.964;21.262;2024-02-26T05:42:23;34.78;;;21.00;;
69890;SDS011;57170;43.964;21.262;2024-02-26T05:44:49;31.73;;;20.58;;
69890;SDS011;57170;43.964;21.262;2024-02-26T05:47:15;30.13;;;20.15;;
69890;SDS011;57170;43.964;21.262;2024-02-26T05:49:42;28.55;;;20.23;;
69890;SDS011;57170;43.964;21.262;2024-02-26T05:52:08;32.20;;;21.77;;
69890;SDS011;57170;43.964;21.262;2024-02-26T05:54:34;32.47;;;22.73;;
69890;SDS011;57170;43.964;21.262;2024-02-26T05:57:01;34.88;;;23.73;;
69890;SDS011;57170;43.964;21.262;2024-02-26T05:59:27;36.35;;;25.70;;
69890;SDS011;57170;43.964;21.262;2024-02-26T06:01:53;32.83;;;24.00;;
69890;SDS011;57170;43.964;21.262;2024-02-26T06:04:19;35.72;;;25.45;;
69890;SDS011;57170;43.964;21.262;2024-02-26T06:06:45;40.17;;;26.23;;
69890;SDS011;57170;43.964;21.262;2024-02-26T06:09:11;38.20;;;24.25;;
69890;SDS011;57170;43.964;21.262;2024-02-26T06:11:38;35.40;;;25.02;;
69890;SDS011;57170;43.964;21.262;2024-02-26T06:14:04;36.20;;;25.42;;
69890;SDS011;57170;43.964;21.262;2024-02-26T06:16:30;30.92;;;23.23;;
69890;SDS011;57170;43.964;21.262;2024-02-26T06:18:56;31.27;;;23.08;;
69890;SDS011;57170;43.964;21.262;2024-02-26T06:21:23;37.22;;;24.95;;
69890;SDS011;57170;43.964;21.262;2024-02-26T06:23:49;36.40;;;25.08;;
69890;SDS011;57170;43.964;21.262;2024-02-26T06:26:15;35.28;;;23.75;;
69890;SDS011;57170;43.964;21.262;2024-02-26T06:28:41;34.30;;;26.52;;
69890;SDS011;57170;43.964;21.262;2024-02-26T06:31:08;46.00;;;35.63;;
69890;SDS011;57170;43.964;21.262;2024-02-26T06:33:34;33.33;;;27.58;;
69890;SDS011;57170;43.964;21.262;2024-02-26T06:36:00;34.80;;;26.35;;
69890;SDS011;57170;43.964;21.262;2024-02-26T06:38:26;47.50;;;35.15;;
69890;SDS011;57170;43.964;21.262;2024-02-26T06:40:52;50.58;;;37.75;;
69890;SDS011;57170;43.964;21.262;2024-02-26T06:43:18;48.75;;;33.55;;
69890;SDS011;57170;43.964;21.262;2024-02-26T06:45:45;39.50;;;30.08;;
69890;SDS011;57170;43.964;21.262;2024-02-26T06:48:11;41.30;;;29.98;;
69890;SDS011;57170;43.964;21.262;2024-02-26T06:50:37;42.97;;;29.40;;
69890;SDS011;57170;43.964;21.262;2024-02-26T06:53:03;38.47;;;29.23;;
69890;SDS011;57170;43.964;21.262;2024-02-26T06:55:30;41.53;;;29.58;;
69890;SDS011;57170;43.964;21.262;2024-02-26T06:57:56;37.78;;;29.27;;
69890;SDS011;57170;43.964;21.262;2024-02-26T07:00:22;42.85;;;29.45;;
69890;SDS011;57170;43.964;21.262;2024-02-26T07:02:48;44.40;;;27.83;;
69890;SDS011;57170;43.964;21.262;2024-02-26T07:05:14;39.33;;;28.88;;
69890;SDS011;57170;43.964;21.262;2024-02-26T07:07:40;43.80;;;32.50;;
69890;SDS011;57170;43.964;21.262;2024-02-26T07:10:07;50.67;;;40.75;;
69890;SDS011;57170;43.964;21.262;2024-02-26T07:12:33;47.30;;;37.08;;
69890;SDS011;57170;43.964;21.262;2024-02-26T07:14:59;60.53;;;42.67;;
69890;SDS011;57170;43.964;21.262;2024-02-26T07:17:26;74.45;;;52.65;;
69890;SDS011;57170;43.964;21.262;2024-02-26T07:19:52;60.05;;;44.70;;
69890;SDS011;57170;43.964;21.262;2024-02-26T07:22:18;63.58;;;47.38;;
69890;SDS011;57170;43.964;21.262;2024-02-26T07:24:44;61.33;;;44.05;;
69890;SDS011;57170;43.964;21.262;2024-02-26T07:27:10;52.05;;;38.55;;
69890;SDS011;57170;43.964;21.262;2024-02-26T07:29:36;51.17;;;39.63;;
69890;SDS011;57170;43.964;21.262;2024-02-26T07:32:03;52.80;;;39.30;;
69890;SDS011;57170;43.964;21.262;2024-02-26T07:34:29;52.53;;;38.53;;
69890;SDS011;57170;43.964;21.262;2024-02-26T07:36:55;34.90;;;29.05;;
69890;SDS011;57170;43.964;21.262;2024-02-26T07:39:22;27.73;;;20.65;;
69890;SDS011;57170;43.964;21.262;2024-02-26T07:41:48;15.55;;;13.80;;
69890;SDS011;57170;43.964;21.262;2024-02-26T07:44:16;18.42;;;16.10;;
69890;SDS011;57170;43.964;21.262;2024-02-26T07:46:43;17.45;;;14.15;;
69890;SDS011;57170;43.964;21.262;2024-02-26T07:49:09;24.42;;;15.65;;
69890;SDS011;57170;43.964;21.262;2024-02-26T07:51:35;19.90;;;14.30;;
69890;SDS011;57170;43.964;21.262;2024-02-26T07:54:01;14.13;;;12.73;;
69890;SDS011;57170;43.964;21.262;2024-02-26T07:56:28;17.20;;;12.30;;
69890;SDS011;57170;43.964;21.262;2024-02-26T07:58:54;13.88;;;12.38;;
69890;SDS011;57170;43.964;21.262;2024-02-26T08:01:20;12.60;;;11.35;;
69890;SDS011;57170;43.964;21.262;2024-02-26T08:03:46;15.38;;;11.65;;
69890;SDS011;57170;43.964;21.262;2024-02-26T08:06:12;15.77;;;14.18;;
69890;SDS011;57170;43.964;21.262;2024-02-26T08:08:38;14.68;;;13.18;;
69890;SDS011;57170;43.964;21.262;2024-02-26T08:11:04;14.23;;;11.60;;
69890;SDS011;57170;43.964;21.262;2024-02-26T08:13:30;16.20;;;12.85;;
69890;SDS011;57170;43.964;21.262;2024-02-26T08:15:56;12.98;;;10.68;;
69890;SDS011;57170;43.964;21.262;2024-02-26T08:18:23;15.27;;;12.40;;
69890;SDS011;57170;43.964;21.262;2024-02-26T08:20:50;12.63;;;11.32;;
69890;SDS011;57170;43.964;21.262;2024-02-26T08:23:16;11.98;;;10.77;;
69890;SDS011;57170;43.964;21.262;2024-02-26T08:25:42;10.57;;;9.23;;
69890;SDS011;57170;43.964;21.262;2024-02-26T08:28:08;13.23;;;10.50;;
69890;SDS011;57170;43.964;21.262;2024-02-26T08:30:36;14.48;;;9.48;;
69890;SDS011;57170;43.964;21.262;2024-02-26T08:33:02;13.55;;;10.13;;
69890;SDS011;57170;43.964;21.262;2024-02-26T08:35:28;11.20;;;10.10;;
69890;SDS011;57170;43.964;21.262;2024-02-26T08:37:54;10.43;;;9.13;;
69890;SDS011;57170;43.964;21.262;2024-02-26T08:40:20;11.13;;;9.63;;
69890;SDS011;57170;43.964;21.262;2024-02-26T08:42:46;11.68;;;9.77;;
69890;SDS011;57170;43.964;21.262;2024-02-26T08:45:13;10.93;;;9.50;;
69890;SDS011;57170;43.964;21.262;2024-02-26T08:47:39;10.85;;;9.45;;
69890;SDS011;57170;43.964;21.262;2024-02-26T08:50:06;11.40;;;10.05;;
69890;SDS011;57170;43.964;21.262;2024-02-26T08:52:34;14.95;;;9.50;;
69890;SDS011;57170;43.964;21.262;2024-02-26T08:55:01;14.35;;;10.05;;
69890;SDS011;57170;43.964;21.262;2024-02-26T08:57:27;10.13;;;9.10;;
69890;SDS011;57170;43.964;21.262;2024-02-26T08:59:53;10.27;;;8.95;;
69890;SDS011;57170;43.964;21.262;2024-02-26T09:02:20;13.48;;;9.65;;
69890;SDS011;57170;43.964;21.262;2024-02-26T09:04:46;13.20;;;9.13;;
69890;SDS011;57170;43.964;21.262;2024-02-26T09:07:12;12.45;;;9.73;;
69890;SDS011;57170;43.964;21.262;2024-02-26T09:09:38;10.50;;;9.18;;
69890;SDS011;57170;43.964;21.262;2024-02-26T09:12:04;11.68;;;9.40;;
69890;SDS011;57170;43.964;21.262;2024-02-26T09:14:30;10.18;;;8.63;;
69890;SDS011;57170;43.964;21.262;2024-02-26T09:16:56;14.77;;;11.70;;
69890;SDS011;57170;43.964;21.262;2024-02-26T09:19:23;12.85;;;9.27;;
69890;SDS011;57170;43.964;21.262;2024-02-26T09:21:50;10.50;;;8.07;;
69890;SDS011;57170;43.964;21.262;2024-02-26T09:24:16;11.48;;;9.45;;
69890;SDS011;57170;43.964;21.262;2024-02-26T09:26:42;10.27;;;8.43;;
69890;SDS011;57170;43.964;21.262;2024-02-26T09:29:08;11.48;;;10.35;;
69890;SDS011;57170;43.964;21.262;2024-02-26T09:31:35;12.27;;;9.93;;
69890;SDS011;57170;43.964;21.262;2024-02-26T09:34:01;14.25;;;9.57;;
69890;SDS011;57170;43.964;21.262;2024-02-26T09:36:27;14.77;;;11.52;;
69890;SDS011;57170;43.964;21.262;2024-02-26T09:38:53;12.38;;;11.13;;
69890;SDS011;57170;43.964;21.262;2024-02-26T09:41:19;13.68;;;12.27;;
69890;SDS011;57170;43.964;21.262;2024-02-26T09:43:46;17.83;;;14.48;;
69890;SDS011;57170;43.964;21.262;2024-02-26T09:46:14;14.23;;;11.98;;
69890;SDS011;57170;43.964;21.262;2024-02-26T09:48:42;15.38;;;13.10;;
69890;SDS011;57170;43.964;21.262;2024-02-26T09:51:10;16.63;;;14.10;;
69890;SDS011;57170;43.964;21.262;2024-02-26T09:53:37;15.73;;;12.13;;
69890;SDS011;57170;43.964;21.262;2024-02-26T09:56:07;16.67;;;12.45;;
69890;SDS011;57170;43.964;21.262;2024-02-26T09:58:34;14.48;;;12.80;;
69890;SDS011;57170;43.964;21.262;2024-02-26T10:01:02;19.77;;;14.65;;
69890;SDS011;57170;43.964;21.262;2024-02-26T10:03:31;15.27;;;11.98;;
69890;SDS011;57170;43.964;21.262;2024-02-26T10:05:58;14.32;;;12.40;;
69890;SDS011;57170;43.964;21.262;2024-02-26T10:08:24;14.00;;;11.52;;
69890;SDS011;57170;43.964;21.262;2024-02-26T10:10:51;16.48;;;13.32;;
69890;SDS011;57170;43.964;21.262;2024-02-26T10:13:18;16.73;;;11.70;;
69890;SDS011;57170;43.964;21.262;2024-02-26T10:15:45;13.13;;;11.75;;
69890;SDS011;57170;43.964;21.262;2024-02-26T10:18:11;13.82;;;11.35;;
69890;SDS011;57170;43.964;21.262;2024-02-26T10:20:37;13.40;;;12.00;;
69890;SDS011;57170;43.964;21.262;2024-02-26T10:23:04;14.90;;;11.85;;
69890;SDS011;57170;43.964;21.262;2024-02-26T10:25:30;13.25;;;11.90;;
69890;SDS011;57170;43.964;21.262;2024-02-26T10:28:00;13.18;;;11.38;;
69890;SDS011;57170;43.964;21.262;2024-02-26T10:30:29;19.88;;;12.90;;
69890;SDS011;57170;43.964;21.262;2024-02-26T10:32:55;15.48;;;13.07;;
69890;SDS011;57170;43.964;21.262;2024-02-26T10:35:22;13.48;;;12.07;;
69890;SDS011;57170;43.964;21.262;2024-02-26T10:37:50;18.63;;;12.63;;
69890;SDS011;57170;43.964;21.262;2024-02-26T10:40:16;14.25;;;12.80;;
69890;SDS011;57170;43.964;21.262;2024-02-26T10:42:42;17.27;;;13.57;;
69890;SDS011;57170;43.964;21.262;2024-02-26T10:45:10;14.85;;;12.43;;
69890;SDS011;57170;43.964;21.262;2024-02-26T10:47:36;16.23;;;12.90;;
69890;SDS011;57170;43.964;21.262;2024-02-26T10:50:03;16.52;;;11.80;;
69890;SDS011;57170;43.964;21.262;2024-02-26T10:52:33;13.73;;;11.27;;
69890;SDS011;57170;43.964;21.262;2024-02-26T10:55:03;14.80;;;12.25;;
69890;SDS011;57170;43.964;21.262;2024-02-26T10:57:39;15.07;;;11.23;;
69890;SDS011;57170;43.964;21.262;2024-02-26T11:00:06;15.20;;;12.93;;
69890;SDS011;57170;43.964;21.262;2024-02-26T11:02:35;17.70;;;13.30;;
69890;SDS011;57170;43.964;21.262;2024-02-26T11:05:02;13.55;;;12.20;;
69890;SDS011;57170;43.964;21.262;2024-02-26T11:07:31;14.60;;;12.43;;
69890;SDS011;57170;43.964;21.262;2024-02-26T11:09:59;16.92;;;12.10;;
69890;SDS011;57170;43.964;21.262;2024-02-26T11:12:26;16.58;;;14.13;;
69890;SDS011;57170;43.964;21.262;2024-02-26T11:14:53;18.30;;;15.77;;
69890;SDS011;57170;43.964;21.262;2024-02-26T11:17:28;17.33;;;13.95;;
69890;SDS011;57170;43.964;21.262;2024-02-26T11:19:58;17.88;;;13.82;;
69890;SDS011;57170;43.964;21.262;2024-02-26T11:22:25;19.02;;;14.50;;
69890;SDS011;57170;43.964;21.262;2024-02-26T11:24:52;18.92;;;14.65;;
69890;SDS011;57170;43.964;21.262;2024-02-26T11:27:21;17.13;;;14.73;;
69890;SDS011;57170;43.964;21.262;2024-02-26T11:29:49;14.43;;;11.40;;
69890;SDS011;57170;43.964;21.262;2024-02-26T11:32:17;13.52;;;11.70;;
69890;SDS011;57170;43.964;21.262;2024-02-26T11:34:43;16.33;;;12.80;;
69890;SDS011;57170;43.964;21.262;2024-02-26T11:37:10;16.38;;;13.23;;
69890;SDS011;57170;43.964;21.262;2024-02-26T11:39:37;17.38;;;15.55;;
69890;SDS011;57170;43.964;21.262;2024-02-26T11:42:25;15.38;;;13.75;;
69890;SDS011;57170;43.964;21.262;2024-02-26T11:44:54;16.92;;;14.75;;
69890;SDS011;57170;43.964;21.262;2024-02-26T11:47:25;17.38;;;14.98;;
69890;SDS011;57170;43.964;21.262;2024-02-26T11:49:52;16.13;;;14.05;;
69890;SDS011;57170;43.964;21.262;2024-02-26T11:52:18;17.20;;;12.80;;
69890;SDS011;57170;43.964;21.262;2024-02-26T11:59:46;17.20;;;12.63;;
69890;SDS011;57170;43.964;21.262;2024-02-26T12:02:37;15.43;;;12.05;;
69890;SDS011;57170;43.964;21.262;2024-02-26T12:04:59;15.02;;;13.48;;
69890;SDS011;57170;43.964;21.262;2024-02-26T12:07:25;12.88;;;11.48;;
69890;SDS011;57170;43.964;21.262;2024-02-26T12:09:51;15.32;;;12.68;;
69890;SDS011;57170;43.964;21.262;2024-02-26T12:12:18;16.38;;;12.88;;
69890;SDS011;57170;43.964;21.262;2024-02-26T12:14:52;14.90;;;13.30;;
69890;SDS011;57170;43.964;21.262;2024-02-26T12:17:22;17.23;;;13.38;;
69890;SDS011;57170;43.964;21.262;2024-02-26T12:19:49;15.18;;;13.52;;
69890;SDS011;57170;43.964;21.262;2024-02-26T12:22:16;16.67;;;13.45;;
69890;SDS011;57170;43.964;21.262;2024-02-26T12:24:43;18.55;;;12.55;;
69890;SDS011;57170;43.964;21.262;2024-02-26T12:27:09;16.52;;;12.52;;
69890;SDS011;57170;43.964;21.262;2024-02-26T12:29:35;17.58;;;12.35;;
69890;SDS011;57170;43.964;21.262;2024-02-26T12:32:01;14.15;;;11.30;;
69890;SDS011;57170;43.964;21.262;2024-02-26T12:34:28;13.02;;;11.07;;
69890;SDS011;57170;43.964;21.262;2024-02-26T12:36:55;14.90;;;11.52;;
69890;SDS011;57170;43.964;21.262;2024-02-26T12:39:21;13.95;;;10.20;;
69890;SDS011;57170;43.964;21.262;2024-02-26T12:41:47;15.48;;;10.23;;
69890;SDS011;57170;43.964;21.262;2024-02-26T12:44:14;18.65;;;12.02;;
69890;SDS011;57170;43.964;21.262;2024-02-26T12:46:41;13.10;;;11.57;;
69890;SDS011;57170;43.964;21.262;2024-02-26T12:49:07;15.18;;;11.13;;
69890;SDS011;57170;43.964;21.262;2024-02-26T12:51:33;14.07;;;10.25;;
69890;SDS011;57170;43.964;21.262;2024-02-26T12:53:59;14.05;;;10.93;;
69890;SDS011;57170;43.964;21.262;2024-02-26T12:56:26;14.63;;;11.27;;
69890;SDS011;57170;43.964;21.262;2024-02-26T12:58:53;12.45;;;10.52;;
69890;SDS011;57170;43.964;21.262;2024-02-26T13:01:21;12.27;;;9.82;;
69890;SDS011;57170;43.964;21.262;2024-02-26T13:03:47;12.80;;;10.20;;
69890;SDS011;57170;43.964;21.262;2024-02-26T13:06:14;19.27;;;11.23;;
69890;SDS011;57170;43.964;21.262;2024-02-26T13:08:40;19.13;;;11.38;;
69890;SDS011;57170;43.964;21.262;2024-02-26T13:11:06;15.68;;;10.23;;
69890;SDS011;57170;43.964;21.262;2024-02-26T13:13:33;14.32;;;11.20;;
69890;SDS011;57170;43.964;21.262;2024-02-26T13:16:02;15.63;;;10.63;;
69890;SDS011;57170;43.964;21.262;2024-02-26T13:18:29;13.63;;;10.90;;
69890;SDS011;57170;43.964;21.262;2024-02-26T13:21:06;42.00;;;12.73;;
69890;SDS011;57170;43.964;21.262;2024-02-26T13:23:33;16.90;;;10.18;;
69890;SDS011;57170;43.964;21.262;2024-02-26T13:25:59;15.57;;;10.80;;
69890;SDS011;57170;43.964;21.262;2024-02-26T13:28:25;14.85;;;11.65;;
69890;SDS011;57170;43.964;21.262;2024-02-26T13:30:57;15.55;;;11.63;;
69890;SDS011;57170;43.964;21.262;2024-02-26T13:33:25;13.98;;;11.10;;
69890;SDS011;57170;43.964;21.262;2024-02-26T13:35:51;15.38;;;11.05;;
69890;SDS011;57170;43.964;21.262;2024-02-26T13:38:18;12.65;;;10.93;;
69890;SDS011;57170;43.964;21.262;2024-02-26T13:40:44;17.17;;;11.50;;
69890;SDS011;57170;43.964;21.262;2024-02-26T13:43:10;14.77;;;10.88;;
69890;SDS011;57170;43.964;21.262;2024-02-26T13:45:37;18.25;;;11.63;;
69890;SDS011;57170;43.964;21.262;2024-02-26T13:48:09;16.38;;;11.50;;
69890;SDS011;57170;43.964;21.262;2024-02-26T13:50:36;17.92;;;11.55;;
69890;SDS011;57170;43.964;21.262;2024-02-26T13:53:02;14.43;;;12.20;;
69890;SDS011;57170;43.964;21.262;2024-02-26T13:55:29;18.58;;;12.48;;
69890;SDS011;57170;43.964;21.262;2024-02-26T13:57:57;13.75;;;10.93;;
69890;SDS011;57170;43.964;21.262;2024-02-26T14:00:23;17.85;;;12.25;;
69890;SDS011;57170;43.964;21.262;2024-02-26T14:02:50;14.40;;;10.57;;
69890;SDS011;57170;43.964;21.262;2024-02-26T14:05:16;12.50;;;11.20;;
69890;SDS011;57170;43.964;21.262;2024-02-26T14:07:42;12.30;;;10.98;;
69890;SDS011;57170;43.964;21.262;2024-02-26T14:10:08;16.98;;;11.48;;
69890;SDS011;57170;43.964;21.262;2024-02-26T14:12:37;15.43;;;10.77;;